createdAt,value
2023-03-21T00:00:33.405Z,65.77
2023-03-21T00:05:33.462Z,66.49
2023-03-21T00:10:42.787Z,67.13
2023-03-21T00:16:44.920Z,67.88
2023-03-21T00:21:59.650Z,66.93
2023-03-21T00:29:23.253Z,66.72
2023-03-21T00:36:05.827Z,66.42
2023-03-21T00:42:32.847Z,67.13
2023-03-21T00:47:32.776Z,66.28
2023-03-21T00:52:41.396Z,67.21
2023-03-21T00:57:40.473Z,66.28
2023-03-21T01:04:35.697Z,66.25
2023-03-21T01:09:35.563Z,66.59
2023-03-21T01:14:35.583Z,66.72
2023-03-21T01:19:50.743Z,67.41
2023-03-21T01:24:40.544Z,68.43
2023-03-21T01:29:36.387Z,68.26
2023-03-21T01:34:35.281Z,69.48
2023-03-21T01:39:35.202Z,69.24
2023-03-21T01:44:35.274Z,69.48
2023-03-21T01:49:35.048Z,69.76
2023-03-21T01:54:38.185Z,69.56
2023-03-21T01:59:34.960Z,70.34
2023-03-21T02:04:34.992Z,69.79
2023-03-21T02:09:34.930Z,70.95
2023-03-21T02:14:34.815Z,70.13
2023-03-21T02:19:41.708Z,69.69
2023-03-21T02:24:35.637Z,71.36
2023-03-21T02:29:34.509Z,71.46
2023-03-21T02:34:35.090Z,71.05
2023-03-21T02:39:34.490Z,71.01
2023-03-21T02:44:34.358Z,70.95
2023-03-21T02:49:34.248Z,71.33
2023-03-21T02:54:47.590Z,72.00
2023-03-21T03:01:42.919Z,72.41
2023-03-21T03:06:42.641Z,72.82
2023-03-21T03:11:53.403Z,72.48
2023-03-21T03:16:42.626Z,72.82
2023-03-21T03:21:42.484Z,72.52
2023-03-21T03:26:42.449Z,72.82
2023-03-21T03:31:42.478Z,73.16
2023-03-21T03:36:42.279Z,73.36
2023-03-21T03:42:04.195Z,73.78
2023-03-21T03:46:43.179Z,73.36
2023-03-21T03:51:45.090Z,73.57
2023-03-21T03:56:42.076Z,74.97
2023-03-21T04:01:41.972Z,73.74
2023-03-21T04:06:41.956Z,73.44
2023-03-21T04:11:41.805Z,74.19
2023-03-21T04:16:41.730Z,74.26
2023-03-21T04:21:41.757Z,73.74
2023-03-21T04:26:41.712Z,72.99
2023-03-21T04:31:41.865Z,73.54
2023-03-21T04:36:41.618Z,74.29
2023-03-21T04:41:41.362Z,73.74
2023-03-21T04:46:41.297Z,73.61
2023-03-21T04:51:44.368Z,74.15
2023-03-21T04:56:41.258Z,75.45
2023-03-21T05:03:02.700Z,73.57
2023-03-21T05:10:30.017Z,75.04
2023-03-21T05:15:29.907Z,75.10
2023-03-21T05:21:58.640Z,72.17
2023-03-21T05:28:15.896Z,72.07
2023-03-21T05:33:15.738Z,72.45
2023-03-21T05:38:23.507Z,73.23
2023-03-21T05:44:33.248Z,70.85
2023-03-21T05:49:33.086Z,72.11
2023-03-21T05:54:33.529Z,73.77
2023-03-21T05:59:32.944Z,72.34
2023-03-21T06:04:33.095Z,73.47
2023-03-21T06:09:32.869Z,71.80
2023-03-21T06:14:32.802Z,72.86
2023-03-21T06:19:32.693Z,73.30
2023-03-21T06:24:32.663Z,72.14
2023-03-21T06:29:36.348Z,72.45
2023-03-21T06:34:36.423Z,71.53
2023-03-21T06:39:32.689Z,71.83
2023-03-21T06:46:11.500Z,70.47
2023-03-21T06:51:13.697Z,69.90
2023-03-21T06:56:11.499Z,68.95
2023-03-21T07:01:11.279Z,68.81
2023-03-21T07:06:11.211Z,68.24
2023-03-21T07:11:10.999Z,66.85
2023-03-21T07:16:10.993Z,65.54
2023-03-21T07:21:10.909Z,62.97
2023-03-21T07:26:18.730Z,62.76
2023-03-21T07:31:17.926Z,62.23
2023-03-21T07:36:21.073Z,64.18
2023-03-21T07:41:10.602Z,63.07
2023-03-21T07:46:10.917Z,62.91
2023-03-21T07:51:10.563Z,61.99
2023-03-21T07:56:10.495Z,60.82
2023-03-21T08:01:10.376Z,61.17
2023-03-21T08:06:10.398Z,58.69
2023-03-21T08:11:10.243Z,60.28
2023-03-21T08:16:10.278Z,58.81
2023-03-21T08:21:10.146Z,58.99
2023-03-21T08:26:17.917Z,59.65
2023-03-21T08:31:09.977Z,59.56
2023-03-21T08:36:13.082Z,57.95
2023-03-21T08:41:09.830Z,59.92
2023-03-21T08:46:10.012Z,59.07
2023-03-21T08:51:09.760Z,58.86
2023-03-21T08:56:09.699Z,57.89
2023-03-21T09:01:09.561Z,57.59
2023-03-21T09:06:09.644Z,57.06
2023-03-21T09:11:09.414Z,56.56
2023-03-21T09:16:09.403Z,57.89
2023-03-21T09:21:17.328Z,58.58
2023-03-21T09:26:09.245Z,60.33
2023-03-21T09:31:09.256Z,59.77
2023-03-21T09:36:12.236Z,59.47
2023-03-21T09:41:09.091Z,59.80
2023-03-21T09:46:09.087Z,59.54
2023-03-21T09:52:26.515Z,59.11
2023-03-21T09:57:26.422Z,56.96
2023-03-21T10:02:34.318Z,56.52
2023-03-21T10:07:33.754Z,56.85
2023-03-21T10:12:26.407Z,57.58
2023-03-21T10:17:33.689Z,56.29
2023-03-21T10:22:26.105Z,56.12
2023-03-21T10:27:26.090Z,55.01
2023-03-21T10:32:25.924Z,54.79
2023-03-21T10:37:25.913Z,54.71
2023-03-21T10:42:28.806Z,53.50
2023-03-21T10:47:26.106Z,53.22
2023-03-21T10:52:25.771Z,54.15
2023-03-21T10:57:25.575Z,53.78
2023-03-21T11:02:32.991Z,55.89
2023-03-21T11:07:33.333Z,54.30
2023-03-21T11:12:25.415Z,53.60
2023-03-21T11:17:26.436Z,55.26
2023-03-21T11:22:25.240Z,52.80
2023-03-21T11:27:25.344Z,55.31
2023-03-21T11:32:25.198Z,54.55
2023-03-21T11:37:25.202Z,52.17
2023-03-21T11:42:28.014Z,50.71
2023-03-21T11:47:24.983Z,51.19
2023-03-21T11:52:24.934Z,50.24
2023-03-21T11:57:24.892Z,51.32
2023-03-21T12:02:32.666Z,51.44
2023-03-21T12:07:32.186Z,51.31
2023-03-21T12:12:38.743Z,52.14
2023-03-21T12:18:36.794Z,54.91
2023-03-21T12:23:36.148Z,56.42
2023-03-21T12:28:36.045Z,55.51
2023-03-21T12:33:35.926Z,54.86
2023-03-21T12:38:35.961Z,55.11
2023-03-21T12:43:35.801Z,55.31
2023-03-21T12:48:35.767Z,55.13
2023-03-21T12:53:35.645Z,53.00
2023-03-21T12:58:35.604Z,50.29
2023-03-21T13:03:40.321Z,50.73
2023-03-21T13:08:39.574Z,49.71
2023-03-21T13:13:35.403Z,49.61
2023-03-21T13:18:35.433Z,49.04
2023-03-21T13:23:35.254Z,47.69
2023-03-21T13:28:35.942Z,47.20
2023-03-21T13:33:35.240Z,49.23
2023-03-21T13:38:35.249Z,47.75
2023-03-21T13:43:43.006Z,48.30
2023-03-21T13:48:35.018Z,48.33
2023-03-21T13:53:34.925Z,48.35
2023-03-21T13:58:34.789Z,49.66
2023-03-21T14:03:34.759Z,48.96
2023-03-21T14:08:38.029Z,50.16
2023-03-21T14:13:38.027Z,50.11
2023-03-21T14:18:52.967Z,48.35
2023-03-21T14:23:35.475Z,48.46
2023-03-21T14:28:34.506Z,48.28
2023-03-21T14:33:42.966Z,49.33
2023-03-21T14:39:51.823Z,48.60
2023-03-21T14:44:55.327Z,49.21
2023-03-21T14:49:51.817Z,48.58
2023-03-21T14:54:51.570Z,49.56
2023-03-21T14:59:51.566Z,49.16
2023-03-21T15:04:51.520Z,48.70
2023-03-21T15:09:51.462Z,50.35
2023-03-21T15:14:51.342Z,49.45
2023-03-21T15:19:51.288Z,49.63
2023-03-21T15:24:51.198Z,51.41
2023-03-21T15:29:54.195Z,51.76
2023-03-21T15:34:51.153Z,52.01
2023-03-21T15:39:52.170Z,51.71
2023-03-21T15:44:50.930Z,51.71
2023-03-21T15:49:50.893Z,51.61
2023-03-21T15:54:50.961Z,52.09
2023-03-21T15:59:50.977Z,51.51
2023-03-21T16:04:50.648Z,52.82
2023-03-21T16:09:50.704Z,52.72
2023-03-21T16:14:50.640Z,52.77
2023-03-21T16:19:50.507Z,53.20
2023-03-21T16:24:50.400Z,53.20
2023-03-21T16:29:53.420Z,53.83
2023-03-21T16:34:50.508Z,55.92
2023-03-21T16:39:50.349Z,56.12
2023-03-21T16:44:50.126Z,57.21
2023-03-21T16:49:50.381Z,60.87
2023-03-21T16:54:50.009Z,61.80
2023-03-21T16:59:49.973Z,65.20
2023-03-21T17:04:49.866Z,66.95
2023-03-21T17:09:49.874Z,68.70
2023-03-21T17:14:49.771Z,68.73
2023-03-21T17:19:49.928Z,69.41
2023-03-21T17:24:49.705Z,69.74
2023-03-21T17:29:52.637Z,69.88
2023-03-21T17:34:49.539Z,71.47
2023-03-21T17:39:50.278Z,69.54
2023-03-21T17:44:49.423Z,72.14
2023-03-21T17:49:49.367Z,70.65
2023-03-21T17:54:49.187Z,73.29
2023-03-21T17:59:49.374Z,73.46
2023-03-21T18:04:49.064Z,75.19
2023-03-21T18:09:49.148Z,75.12
2023-03-21T18:14:48.988Z,76.95
2023-03-21T18:19:50.434Z,75.36
2023-03-21T18:24:48.924Z,76.31
2023-03-21T18:30:25.897Z,78.06
2023-03-21T18:34:49.813Z,79.77
2023-03-21T18:39:56.786Z,78.17
2023-03-21T18:44:48.588Z,79.32
2023-03-21T18:50:12.781Z,82.00
2023-03-21T18:54:49.449Z,81.43
2023-03-21T18:59:57.630Z,80.94
2023-03-21T19:04:55.529Z,80.98
2023-03-21T19:10:09.461Z,82.45
2023-03-21T19:14:49.258Z,82.24
2023-03-21T19:19:48.138Z,82.85
2023-03-21T19:24:48.143Z,83.81
2023-03-21T19:30:12.732Z,82.61
2023-03-21T19:34:48.906Z,83.84
2023-03-21T19:39:47.888Z,83.20
2023-03-21T19:44:47.763Z,82.28
2023-03-21T19:50:37.415Z,82.79
2023-03-21T19:54:48.753Z,83.07
2023-03-21T19:59:47.717Z,84.74
2023-03-21T20:04:47.689Z,84.84
2023-03-21T20:09:52.548Z,85.45
2023-03-21T20:14:49.223Z,84.80
2023-03-21T20:19:47.486Z,84.23
2023-03-21T20:24:47.276Z,84.03
2023-03-21T20:34:48.506Z,83.62
2023-03-21T20:39:47.162Z,82.90
2023-03-21T20:45:02.420Z,82.46
2023-03-21T20:49:49.394Z,83.56
2023-03-21T20:54:47.022Z,84.41
2023-03-21T20:59:46.915Z,84.72
2023-03-21T21:05:12.209Z,83.80
2023-03-21T21:09:47.929Z,84.20
2023-03-21T21:14:46.810Z,84.90
2023-03-21T21:19:46.724Z,84.59
2023-03-21T21:24:46.502Z,84.90
2023-03-21T21:29:49.678Z,85.47
2023-03-21T21:34:46.366Z,84.18
2023-03-21T21:39:55.693Z,82.92
2023-03-21T21:44:46.385Z,83.57
2023-03-21T21:49:46.323Z,84.42
2023-03-21T21:54:46.192Z,83.85
2023-03-21T22:01:03.789Z,82.18
2023-03-21T22:06:03.653Z,83.38
2023-03-21T22:11:03.715Z,83.83
2023-03-21T22:16:03.433Z,82.83
2023-03-21T22:21:03.323Z,82.87
2023-03-21T22:26:03.246Z,81.71
2023-03-21T22:31:04.509Z,85.06
2023-03-21T22:36:03.261Z,84.30
2023-03-21T22:41:03.146Z,84.44
2023-03-21T22:46:03.093Z,83.48
2023-03-21T22:51:06.032Z,84.65
2023-03-21T22:56:03.135Z,84.38
2023-03-21T23:01:03.573Z,83.66
2023-03-21T23:06:02.832Z,83.81
2023-03-21T23:11:02.878Z,83.84
2023-03-21T23:16:02.777Z,83.88
2023-03-21T23:21:02.616Z,82.48
2023-03-21T23:26:02.586Z,82.48
2023-03-21T23:31:11.892Z,81.04
2023-03-21T23:36:09.849Z,82.17
2023-03-21T23:42:20.114Z,83.82
2023-03-21T23:47:20.096Z,83.58
2023-03-21T23:52:20.047Z,83.51
2023-03-21T23:57:19.963Z,84.99
